sensor_id;sensor_type;location;lat;lon;timestamp;P1;durP1;ratioP1;P2;durP2;ratioP2
76380;SDS011;65202;52.520;10.528;2023-02-28T00:01:28;16.38;;;8.80;;
76380;SDS011;65202;52.520;10.528;2023-02-28T00:03:56;13.95;;;7.30;;
76380;SDS011;65202;52.520;10.528;2023-02-28T00:06:24;10.90;;;6.50;;
76380;SDS011;65202;52.520;10.528;2023-02-28T00:08:51;12.35;;;6.35;;
76380;SDS011;65202;52.520;10.528;2023-02-28T00:11:18;10.73;;;6.45;;
76380;SDS011;65202;52.520;10.528;2023-02-28T00:13:46;12.20;;;6.72;;
76380;SDS011;65202;52.520;10.528;2023-02-28T00:16:16;15.23;;;7.15;;
76380;SDS011;65202;52.520;10.528;2023-02-28T00:18:47;12.45;;;6.38;;
76380;SDS011;65202;52.520;10.528;2023-02-28T00:21:16;12.63;;;6.20;;
76380;SDS011;65202;52.520;10.528;2023-02-28T00:23:45;10.52;;;6.03;;
76380;SDS011;65202;52.520;10.528;2023-02-28T00:26:13;13.32;;;6.38;;
76380;SDS011;65202;52.520;10.528;2023-02-28T00:28:40;10.98;;;6.35;;
76380;SDS011;65202;52.520;10.528;2023-02-28T00:31:07;14.43;;;7.13;;
76380;SDS011;65202;52.520;10.528;2023-02-28T00:33:35;17.10;;;7.82;;
76380;SDS011;65202;52.520;10.528;2023-02-28T00:36:06;14.82;;;8.32;;
76380;SDS011;65202;52.520;10.528;2023-02-28T00:38:36;18.55;;;9.80;;
76380;SDS011;65202;52.520;10.528;2023-02-28T00:41:05;17.27;;;10.05;;
76380;SDS011;65202;52.520;10.528;2023-02-28T00:43:34;20.52;;;11.25;;
76380;SDS011;65202;52.520;10.528;2023-02-28T00:46:04;21.25;;;10.07;;
76380;SDS011;65202;52.520;10.528;2023-02-28T00:48:32;20.80;;;10.60;;
76380;SDS011;65202;52.520;10.528;2023-02-28T00:50:59;21.00;;;11.50;;
76380;SDS011;65202;52.520;10.528;2023-02-28T00:53:27;23.02;;;11.63;;
76380;SDS011;65202;52.520;10.528;2023-02-28T00:55:55;26.13;;;12.38;;
76380;SDS011;65202;52.520;10.528;2023-02-28T00:58:22;21.85;;;11.77;;
76380;SDS011;65202;52.520;10.528;2023-02-28T01:00:50;22.95;;;11.63;;
76380;SDS011;65202;52.520;10.528;2023-02-28T01:03:19;24.15;;;11.88;;
76380;SDS011;65202;52.520;10.528;2023-02-28T01:05:49;23.63;;;12.65;;
76380;SDS011;65202;52.520;10.528;2023-02-28T01:08:17;23.30;;;11.65;;
76380;SDS011;65202;52.520;10.528;2023-02-28T01:10:44;23.58;;;11.93;;
76380;SDS011;65202;52.520;10.528;2023-02-28T01:13:11;22.40;;;12.07;;
76380;SDS011;65202;52.520;10.528;2023-02-28T01:15:50;26.77;;;12.93;;
76380;SDS011;65202;52.520;10.528;2023-02-28T01:18:21;22.67;;;12.55;;
76380;SDS011;65202;52.520;10.528;2023-02-28T01:20:48;20.33;;;11.30;;
76380;SDS011;65202;52.520;10.528;2023-02-28T01:23:19;24.27;;;11.70;;
76380;SDS011;65202;52.520;10.528;2023-02-28T01:25:51;22.17;;;11.38;;
76380;SDS011;65202;52.520;10.528;2023-02-28T01:28:19;19.63;;;11.73;;
76380;SDS011;65202;52.520;10.528;2023-02-28T01:30:47;19.25;;;10.05;;
76380;SDS011;65202;52.520;10.528;2023-02-28T01:33:16;16.88;;;8.35;;
76380;SDS011;65202;52.520;10.528;2023-02-28T01:35:43;26.33;;;10.88;;
76380;SDS011;65202;52.520;10.528;2023-02-28T01:38:11;26.75;;;12.32;;
76380;SDS011;65202;52.520;10.528;2023-02-28T01:40:48;20.23;;;11.10;;
76380;SDS011;65202;52.520;10.528;2023-02-28T01:43:26;12.90;;;7.65;;
76380;SDS011;65202;52.520;10.528;2023-02-28T01:46:11;11.20;;;6.97;;
76380;SDS011;65202;52.520;10.528;2023-02-28T01:48:40;14.70;;;7.82;;
76380;SDS011;65202;52.520;10.528;2023-02-28T01:51:15;15.82;;;7.22;;
76380;SDS011;65202;52.520;10.528;2023-02-28T01:53:49;15.00;;;8.43;;
76380;SDS011;65202;52.520;10.528;2023-02-28T01:56:24;15.82;;;9.00;;
76380;SDS011;65202;52.520;10.528;2023-02-28T01:58:57;14.50;;;8.40;;
76380;SDS011;65202;52.520;10.528;2023-02-28T02:01:25;16.38;;;9.57;;
76380;SDS011;65202;52.520;10.528;2023-02-28T02:03:56;15.52;;;8.85;;
76380;SDS011;65202;52.520;10.528;2023-02-28T02:06:31;15.80;;;9.47;;
76380;SDS011;65202;52.520;10.528;2023-02-28T02:09:05;19.25;;;11.52;;
76380;SDS011;65202;52.520;10.528;2023-02-28T02:11:32;19.25;;;9.55;;
76380;SDS011;65202;52.520;10.528;2023-02-28T02:26:27;22.95;;;12.32;;
76380;SDS011;65202;52.520;10.528;2023-02-28T02:29:30;18.83;;;10.60;;
76380;SDS011;65202;52.520;10.528;2023-02-28T02:38:19;16.77;;;8.38;;
76380;SDS011;65202;52.520;10.528;2023-02-28T02:44:11;19.85;;;10.00;;
76380;SDS011;65202;52.520;10.528;2023-02-28T02:46:48;16.90;;;9.15;;
76380;SDS011;65202;52.520;10.528;2023-02-28T02:49:34;15.55;;;8.30;;
76380;SDS011;65202;52.520;10.528;2023-02-28T02:52:06;17.15;;;9.80;;
76380;SDS011;65202;52.520;10.528;2023-02-28T02:54:43;16.35;;;9.30;;
76380;SDS011;65202;52.520;10.528;2023-02-28T02:57:16;16.52;;;9.35;;
76380;SDS011;65202;52.520;10.528;2023-02-28T02:59:50;17.13;;;9.82;;
76380;SDS011;65202;52.520;10.528;2023-02-28T03:02:21;17.65;;;10.40;;
76380;SDS011;65202;52.520;10.528;2023-02-28T03:04:53;22.30;;;10.43;;
76380;SDS011;65202;52.520;10.528;2023-02-28T03:07:27;20.33;;;9.50;;
76380;SDS011;65202;52.520;10.528;2023-02-28T03:09:55;17.00;;;9.50;;
76380;SDS011;65202;52.520;10.528;2023-02-28T03:12:28;16.90;;;9.60;;
76380;SDS011;65202;52.520;10.528;2023-02-28T03:15:13;18.58;;;10.73;;
76380;SDS011;65202;52.520;10.528;2023-02-28T03:18:10;18.98;;;10.95;;
76380;SDS011;65202;52.520;10.528;2023-02-28T03:21:20;20.35;;;11.25;;
76380;SDS011;65202;52.520;10.528;2023-02-28T03:24:17;19.83;;;11.23;;
76380;SDS011;65202;52.520;10.528;2023-02-28T03:27:41;22.75;;;11.75;;
76380;SDS011;65202;52.520;10.528;2023-02-28T03:32:56;21.15;;;11.65;;
76380;SDS011;65202;52.520;10.528;2023-02-28T03:35:36;23.90;;;11.43;;
76380;SDS011;65202;52.520;10.528;2023-02-28T03:38:18;19.30;;;11.88;;
76380;SDS011;65202;52.520;10.528;2023-02-28T03:40:56;18.83;;;10.73;;
76380;SDS011;65202;52.520;10.528;2023-02-28T03:43:34;19.60;;;9.65;;
76380;SDS011;65202;52.520;10.528;2023-02-28T03:46:09;16.55;;;8.73;;
76380;SDS011;65202;52.520;10.528;2023-02-28T03:48:46;19.33;;;8.48;;
76380;SDS011;65202;52.520;10.528;2023-02-28T03:51:20;23.95;;;8.38;;
76380;SDS011;65202;52.520;10.528;2023-02-28T03:53:54;24.33;;;8.45;;
76380;SDS011;65202;52.520;10.528;2023-02-28T03:59:18;21.92;;;9.55;;
76380;SDS011;65202;52.520;10.528;2023-02-28T04:02:06;16.75;;;9.02;;
76380;SDS011;65202;52.520;10.528;2023-02-28T04:04:34;17.70;;;8.13;;
76380;SDS011;65202;52.520;10.528;2023-02-28T04:07:03;16.90;;;7.97;;
76380;SDS011;65202;52.520;10.528;2023-02-28T04:09:34;14.23;;;7.60;;
76380;SDS011;65202;52.520;10.528;2023-02-28T04:12:02;12.93;;;7.18;;
76380;SDS011;65202;52.520;10.528;2023-02-28T04:14:29;12.63;;;7.45;;
76380;SDS011;65202;52.520;10.528;2023-02-28T04:16:56;11.77;;;6.43;;
76380;SDS011;65202;52.520;10.528;2023-02-28T04:19:23;11.23;;;6.75;;
76380;SDS011;65202;52.520;10.528;2023-02-28T04:21:51;15.35;;;7.15;;
76380;SDS011;65202;52.520;10.528;2023-02-28T04:24:21;12.07;;;6.78;;
76380;SDS011;65202;52.520;10.528;2023-02-28T04:26:53;12.05;;;6.50;;
76380;SDS011;65202;52.520;10.528;2023-02-28T04:29:23;12.20;;;7.00;;
76380;SDS011;65202;52.520;10.528;2023-02-28T04:31:54;13.23;;;6.78;;
76380;SDS011;65202;52.520;10.528;2023-02-28T04:34:27;12.85;;;6.82;;
76380;SDS011;65202;52.520;10.528;2023-02-28T04:36:57;13.10;;;6.30;;
76380;SDS011;65202;52.520;10.528;2023-02-28T04:39:39;12.57;;;7.25;;
76380;SDS011;65202;52.520;10.528;2023-02-28T04:42:08;12.90;;;7.10;;
76380;SDS011;65202;52.520;10.528;2023-02-28T04:44:35;12.63;;;6.43;;
76380;SDS011;65202;52.520;10.528;2023-02-28T04:47:03;11.93;;;6.95;;
76380;SDS011;65202;52.520;10.528;2023-02-28T04:49:30;12.27;;;6.95;;
76380;SDS011;65202;52.520;10.528;2023-02-28T04:51:58;12.15;;;6.65;;
76380;SDS011;65202;52.520;10.528;2023-02-28T04:54:26;12.85;;;6.72;;
76380;SDS011;65202;52.520;10.528;2023-02-28T04:56:53;14.20;;;6.97;;
76380;SDS011;65202;52.520;10.528;2023-02-28T04:59:21;12.68;;;6.75;;
76380;SDS011;65202;52.520;10.528;2023-02-28T05:01:49;11.50;;;6.82;;
76380;SDS011;65202;52.520;10.528;2023-02-28T05:04:16;13.50;;;6.63;;
76380;SDS011;65202;52.520;10.528;2023-02-28T05:06:44;11.45;;;7.07;;
76380;SDS011;65202;52.520;10.528;2023-02-28T05:09:12;14.32;;;7.53;;
76380;SDS011;65202;52.520;10.528;2023-02-28T05:11:39;14.77;;;6.78;;
76380;SDS011;65202;52.520;10.528;2023-02-28T05:14:12;11.48;;;6.90;;
76380;SDS011;65202;52.520;10.528;2023-02-28T05:16:41;14.48;;;8.18;;
76380;SDS011;65202;52.520;10.528;2023-02-28T05:19:09;15.73;;;8.40;;
76380;SDS011;65202;52.520;10.528;2023-02-28T05:21:55;11.95;;;7.40;;
76380;SDS011;65202;52.520;10.528;2023-02-28T05:24:22;13.52;;;7.82;;
76380;SDS011;65202;52.520;10.528;2023-02-28T05:26:51;26.15;;;13.05;;
76380;SDS011;65202;52.520;10.528;2023-02-28T05:29:20;21.33;;;11.55;;
76380;SDS011;65202;52.520;10.528;2023-02-28T05:31:49;23.42;;;13.60;;
76380;SDS011;65202;52.520;10.528;2023-02-28T05:34:17;18.15;;;10.93;;
76380;SDS011;65202;52.520;10.528;2023-02-28T05:36:44;20.05;;;9.57;;
76380;SDS011;65202;52.520;10.528;2023-02-28T05:39:11;20.10;;;10.60;;
76380;SDS011;65202;52.520;10.528;2023-02-28T05:41:43;16.83;;;9.63;;
76380;SDS011;65202;52.520;10.528;2023-02-28T05:44:10;20.50;;;10.57;;
76380;SDS011;65202;52.520;10.528;2023-02-28T05:46:39;22.58;;;10.52;;
76380;SDS011;65202;52.520;10.528;2023-02-28T05:49:06;20.30;;;10.10;;
76380;SDS011;65202;52.520;10.528;2023-02-28T05:51:33;21.83;;;10.23;;
76380;SDS011;65202;52.520;10.528;2023-02-28T05:54:05;16.43;;;9.70;;
76380;SDS011;65202;52.520;10.528;2023-02-28T05:56:33;21.10;;;10.48;;
76380;SDS011;65202;52.520;10.528;2023-02-28T05:59:06;18.90;;;10.05;;
76380;SDS011;65202;52.520;10.528;2023-02-28T06:01:37;19.00;;;10.25;;
76380;SDS011;65202;52.520;10.528;2023-02-28T06:04:07;19.35;;;11.00;;
76380;SDS011;65202;52.520;10.528;2023-02-28T06:06:51;19.83;;;9.85;;
76380;SDS011;65202;52.520;10.528;2023-02-28T06:09:18;18.58;;;9.70;;
76380;SDS011;65202;52.520;10.528;2023-02-28T06:11:47;26.65;;;13.68;;
76380;SDS011;65202;52.520;10.528;2023-02-28T06:14:15;17.90;;;9.75;;
76380;SDS011;65202;52.520;10.528;2023-02-28T06:16:45;19.50;;;10.55;;
76380;SDS011;65202;52.520;10.528;2023-02-28T06:19:13;17.65;;;10.10;;
76380;SDS011;65202;52.520;10.528;2023-02-28T06:21:42;18.05;;;10.20;;
76380;SDS011;65202;52.520;10.528;2023-02-28T06:24:10;20.85;;;10.10;;
76380;SDS011;65202;52.520;10.528;2023-02-28T06:26:37;17.23;;;8.95;;
76380;SDS011;65202;52.520;10.528;2023-02-28T06:29:04;17.40;;;8.60;;
76380;SDS011;65202;52.520;10.528;2023-02-28T06:31:31;19.17;;;9.07;;
76380;SDS011;65202;52.520;10.528;2023-02-28T06:33:59;19.75;;;10.85;;
76380;SDS011;65202;52.520;10.528;2023-02-28T06:36:27;23.95;;;13.00;;
76380;SDS011;65202;52.520;10.528;2023-02-28T06:38:54;25.10;;;13.90;;
76380;SDS011;65202;52.520;10.528;2023-02-28T06:41:26;25.48;;;13.63;;
76380;SDS011;65202;52.520;10.528;2023-02-28T06:43:54;19.93;;;10.63;;
76380;SDS011;65202;52.520;10.528;2023-02-28T06:46:22;15.07;;;9.57;;
76380;SDS011;65202;52.520;10.528;2023-02-28T06:48:50;20.08;;;9.82;;
76380;SDS011;65202;52.520;10.528;2023-02-28T06:51:18;21.40;;;9.63;;
76380;SDS011;65202;52.520;10.528;2023-02-28T06:53:48;17.65;;;9.10;;
76380;SDS011;65202;52.520;10.528;2023-02-28T06:56:16;16.63;;;9.77;;
76380;SDS011;65202;52.520;10.528;2023-02-28T06:58:48;17.02;;;9.02;;
76380;SDS011;65202;52.520;10.528;2023-02-28T07:01:17;22.25;;;9.38;;
76380;SDS011;65202;52.520;10.528;2023-02-28T07:03:46;21.02;;;8.73;;
76380;SDS011;65202;52.520;10.528;2023-02-28T07:06:13;23.48;;;10.10;;
76380;SDS011;65202;52.520;10.528;2023-02-28T07:08:40;21.63;;;9.77;;
76380;SDS011;65202;52.520;10.528;2023-02-28T07:11:07;12.55;;;7.40;;
76380;SDS011;65202;52.520;10.528;2023-02-28T07:13:35;11.45;;;6.43;;
76380;SDS011;65202;52.520;10.528;2023-02-28T07:16:04;16.88;;;6.30;;
76380;SDS011;65202;52.520;10.528;2023-02-28T07:18:35;14.00;;;7.85;;
76380;SDS011;65202;52.520;10.528;2023-02-28T07:21:03;16.05;;;9.48;;
76380;SDS011;65202;52.520;10.528;2023-02-28T07:23:34;19.98;;;9.40;;
76380;SDS011;65202;52.520;10.528;2023-02-28T07:26:05;15.48;;;9.18;;
76380;SDS011;65202;52.520;10.528;2023-02-28T07:28:33;17.88;;;10.38;;
76380;SDS011;65202;52.520;10.528;2023-02-28T07:31:04;18.35;;;9.57;;
76380;SDS011;65202;52.520;10.528;2023-02-28T07:33:33;19.77;;;10.07;;
76380;SDS011;65202;52.520;10.528;2023-02-28T07:36:08;23.45;;;10.88;;
76380;SDS011;65202;52.520;10.528;2023-02-28T07:38:45;21.73;;;10.68;;
76380;SDS011;65202;52.520;10.528;2023-02-28T07:41:17;21.55;;;9.82;;
76380;SDS011;65202;52.520;10.528;2023-02-28T07:43:48;18.83;;;9.15;;
76380;SDS011;65202;52.520;10.528;2023-02-28T07:46:16;16.70;;;8.30;;
76380;SDS011;65202;52.520;10.528;2023-02-28T07:48:44;20.52;;;9.20;;
76380;SDS011;65202;52.520;10.528;2023-02-28T07:51:11;15.43;;;8.63;;
76380;SDS011;65202;52.520;10.528;2023-02-28T07:53:39;13.80;;;7.90;;
76380;SDS011;65202;52.520;10.528;2023-02-28T07:56:06;14.63;;;6.80;;
76380;SDS011;65202;52.520;10.528;2023-02-28T07:58:34;12.40;;;7.82;;
76380;SDS011;65202;52.520;10.528;2023-02-28T08:01:04;10.52;;;7.05;;
76380;SDS011;65202;52.520;10.528;2023-02-28T08:03:33;8.40;;;6.25;;
76380;SDS011;65202;52.520;10.528;2023-02-28T08:06:05;7.82;;;5.38;;
76380;SDS011;65202;52.520;10.528;2023-02-28T08:08:34;8.50;;;5.23;;
76380;SDS011;65202;52.520;10.528;2023-02-28T08:11:01;7.28;;;5.53;;
76380;SDS011;65202;52.520;10.528;2023-02-28T08:13:30;9.95;;;5.90;;
76380;SDS011;65202;52.520;10.528;2023-02-28T08:15:57;6.90;;;5.20;;
76380;SDS011;65202;52.520;10.528;2023-02-28T08:18:24;10.52;;;5.40;;
76380;SDS011;65202;52.520;10.528;2023-02-28T08:20:52;6.93;;;5.40;;
76380;SDS011;65202;52.520;10.528;2023-02-28T08:23:19;7.50;;;4.90;;
76380;SDS011;65202;52.520;10.528;2023-02-28T08:25:52;18.60;;;12.25;;
76380;SDS011;65202;52.520;10.528;2023-02-28T08:28:21;8.20;;;4.90;;
76380;SDS011;65202;52.520;10.528;2023-02-28T08:30:52;5.85;;;4.70;;
76380;SDS011;65202;52.520;10.528;2023-02-28T08:33:21;6.30;;;4.60;;
76380;SDS011;65202;52.520;10.528;2023-02-28T08:35:52;7.40;;;4.93;;
76380;SDS011;65202;52.520;10.528;2023-02-28T08:38:21;8.32;;;4.60;;
76380;SDS011;65202;52.520;10.528;2023-02-28T08:40:49;7.70;;;5.22;;
76380;SDS011;65202;52.520;10.528;2023-02-28T08:43:27;7.47;;;4.82;;
76380;SDS011;65202;52.520;10.528;2023-02-28T08:45:55;7.82;;;5.28;;
76380;SDS011;65202;52.520;10.528;2023-02-28T08:48:26;5.85;;;4.90;;
76380;SDS011;65202;52.520;10.528;2023-02-28T08:50:56;6.00;;;4.40;;
76380;SDS011;65202;52.520;10.528;2023-02-28T08:53:33;7.68;;;4.82;;
76380;SDS011;65202;52.520;10.528;2023-02-28T08:56:03;5.95;;;4.28;;
76380;SDS011;65202;52.520;10.528;2023-02-28T08:58:35;5.88;;;4.28;;
76380;SDS011;65202;52.520;10.528;2023-02-28T09:01:10;6.05;;;4.03;;
76380;SDS011;65202;52.520;10.528;2023-02-28T09:03:43;5.25;;;4.18;;
76380;SDS011;65202;52.520;10.528;2023-02-28T09:06:13;8.38;;;4.30;;
76380;SDS011;65202;52.520;10.528;2023-02-28T09:08:42;5.43;;;4.03;;
76380;SDS011;65202;52.520;10.528;2023-02-28T09:11:10;6.05;;;4.00;;
76380;SDS011;65202;52.520;10.528;2023-02-28T09:13:38;4.43;;;3.85;;
76380;SDS011;65202;52.520;10.528;2023-02-28T09:16:07;6.05;;;3.97;;
76380;SDS011;65202;52.520;10.528;2023-02-28T09:18:39;6.07;;;3.85;;
76380;SDS011;65202;52.520;10.528;2023-02-28T09:21:07;5.65;;;3.85;;
76380;SDS011;65202;52.520;10.528;2023-02-28T09:23:41;4.68;;;3.50;;
76380;SDS011;65202;52.520;10.528;2023-02-28T09:26:27;4.28;;;3.70;;
76380;SDS011;65202;52.520;10.528;2023-02-28T09:29:08;5.28;;;3.80;;
76380;SDS011;65202;52.520;10.528;2023-02-28T09:31:35;4.95;;;3.13;;
76380;SDS011;65202;52.520;10.528;2023-02-28T09:34:03;5.70;;;3.60;;
76380;SDS011;65202;52.520;10.528;2023-02-28T09:36:31;7.07;;;3.33;;
76380;SDS011;65202;52.520;10.528;2023-02-28T09:39:10;5.43;;;3.38;;
76380;SDS011;65202;52.520;10.528;2023-02-28T09:41:43;4.32;;;3.00;;
76380;SDS011;65202;52.520;10.528;2023-02-28T09:44:28;5.05;;;3.03;;
76380;SDS011;65202;52.520;10.528;2023-02-28T09:47:18;5.13;;;2.83;;
76380;SDS011;65202;52.520;10.528;2023-02-28T09:49:58;4.18;;;2.67;;
76380;SDS011;65202;52.520;10.528;2023-02-28T09:52:55;3.72;;;2.42;;
76380;SDS011;65202;52.520;10.528;2023-02-28T10:01:22;3.72;;;2.30;;
76380;SDS011;65202;52.520;10.528;2023-02-28T10:06:49;4.53;;;2.00;;
76380;SDS011;65202;52.520;10.528;2023-02-28T10:09:18;2.88;;;1.63;;
76380;SDS011;65202;52.520;10.528;2023-02-28T10:11:52;3.03;;;1.52;;
76380;SDS011;65202;52.520;10.528;2023-02-28T10:14:28;4.55;;;1.88;;
76380;SDS011;65202;52.520;10.528;2023-02-28T10:17:04;5.22;;;1.83;;
76380;SDS011;65202;52.520;10.528;2023-02-28T10:19:47;5.10;;;1.90;;
76380;SDS011;65202;52.520;10.528;2023-02-28T10:25:18;3.60;;;2.30;;
76380;SDS011;65202;52.520;10.528;2023-02-28T10:28:07;3.35;;;1.70;;
76380;SDS011;65202;52.520;10.528;2023-02-28T10:30:42;4.18;;;2.10;;
76380;SDS011;65202;52.520;10.528;2023-02-28T10:33:50;4.32;;;2.17;;
76380;SDS011;65202;52.520;10.528;2023-02-28T10:36:15;5.72;;;2.10;;
76380;SDS011;65202;52.520;10.528;2023-02-28T10:38:46;4.97;;;2.10;;
76380;SDS011;65202;52.520;10.528;2023-02-28T10:41:28;5.25;;;2.15;;
76380;SDS011;65202;52.520;10.528;2023-02-28T10:44:21;3.05;;;1.75;;
76380;SDS011;65202;52.520;10.528;2023-02-28T10:46:50;5.38;;;2.33;;
76380;SDS011;65202;52.520;10.528;2023-02-28T10:49:20;5.20;;;2.30;;
76380;SDS011;65202;52.520;10.528;2023-02-28T10:51:56;3.78;;;2.40;;
76380;SDS011;65202;52.520;10.528;2023-02-28T10:54:29;4.38;;;2.28;;
76380;SDS011;65202;52.520;10.528;2023-02-28T10:59:52;5.30;;;2.63;;
76380;SDS011;65202;52.520;10.528;2023-02-28T11:02:40;4.97;;;2.53;;
76380;SDS011;65202;52.520;10.528;2023-02-28T11:08:13;6.72;;;2.90;;
76380;SDS011;65202;52.520;10.528;2023-02-28T11:10:47;5.53;;;2.28;;
76380;SDS011;65202;52.520;10.528;2023-02-28T11:13:26;4.47;;;2.03;;
76380;SDS011;65202;52.520;10.528;2023-02-28T11:16:02;4.88;;;2.30;;
76380;SDS011;65202;52.520;10.528;2023-02-28T11:18:52;3.97;;;2.20;;
76380;SDS011;65202;52.520;10.528;2023-02-28T11:21:23;5.15;;;2.70;;
76380;SDS011;65202;52.520;10.528;2023-02-28T11:26:51;5.28;;;2.00;;
76380;SDS011;65202;52.520;10.528;2023-02-28T11:29:19;4.40;;;1.80;;
76380;SDS011;65202;52.520;10.528;2023-02-28T11:34:36;12.70;;;2.60;;
76380;SDS011;65202;52.520;10.528;2023-02-28T11:37:08;6.97;;;2.40;;
76380;SDS011;65202;52.520;10.528;2023-02-28T11:39:43;4.05;;;2.15;;
76380;SDS011;65202;52.520;10.528;2023-02-28T11:48:39;6.72;;;3.63;;
76380;SDS011;65202;52.520;10.528;2023-02-28T11:51:48;6.50;;;3.08;;
76380;SDS011;65202;52.520;10.528;2023-02-28T11:54:48;8.10;;;3.63;;
76380;SDS011;65202;52.520;10.528;2023-02-28T12:01:05;8.02;;;3.30;;
76380;SDS011;65202;52.520;10.528;2023-02-28T12:06:50;11.73;;;6.72;;
76380;SDS011;65202;52.520;10.528;2023-02-28T12:12:29;5.13;;;3.03;;
76380;SDS011;65202;52.520;10.528;2023-02-28T12:15:28;6.80;;;3.08;;
76380;SDS011;65202;52.520;10.528;2023-02-28T12:18:17;6.25;;;3.13;;
76380;SDS011;65202;52.520;10.528;2023-02-28T12:21:15;6.75;;;3.60;;
76380;SDS011;65202;52.520;10.528;2023-02-28T12:27:06;6.65;;;3.08;;
76380;SDS011;65202;52.520;10.528;2023-02-28T12:29:43;7.63;;;3.83;;
76380;SDS011;65202;52.520;10.528;2023-02-28T12:32:37;11.02;;;3.50;;
76380;SDS011;65202;52.520;10.528;2023-02-28T12:35:12;6.72;;;3.53;;
76380;SDS011;65202;52.520;10.528;2023-02-28T12:37:50;7.78;;;3.60;;
76380;SDS011;65202;52.520;10.528;2023-02-28T12:40:34;5.15;;;3.35;;
76380;SDS011;65202;52.520;10.528;2023-02-28T12:43:13;5.32;;;3.20;;
76380;SDS011;65202;52.520;10.528;2023-02-28T12:45:46;5.32;;;3.50;;
76380;SDS011;65202;52.520;10.528;2023-02-28T12:48:30;5.15;;;3.42;;
76380;SDS011;65202;52.520;10.528;2023-02-28T12:51:08;6.32;;;3.75;;
76380;SDS011;65202;52.520;10.528;2023-02-28T12:53:50;6.72;;;3.40;;
76380;SDS011;65202;52.520;10.528;2023-02-28T12:56:46;6.07;;;3.35;;
76380;SDS011;65202;52.520;10.528;2023-02-28T13:02:27;5.70;;;3.40;;
76380;SDS011;65202;52.520;10.528;2023-02-28T13:05:46;8.15;;;3.90;;
76380;SDS011;65202;52.520;10.528;2023-02-28T13:08:36;6.35;;;4.03;;
76380;SDS011;65202;52.520;10.528;2023-02-28T13:11:45;6.72;;;4.25;;
76380;SDS011;65202;52.520;10.528;2023-02-28T13:14:18;6.78;;;3.80;;
76380;SDS011;65202;52.520;10.528;2023-02-28T13:17:21;7.93;;;3.90;;
76380;SDS011;65202;52.520;10.528;2023-02-28T13:22:35;5.38;;;3.33;;
76380;SDS011;65202;52.520;10.528;2023-02-28T13:27:49;5.55;;;3.70;;
76380;SDS011;65202;52.520;10.528;2023-02-28T13:35:46;5.40;;;3.75;;
76380;SDS011;65202;52.520;10.528;2023-02-28T13:38:16;5.20;;;3.50;;
76380;SDS011;65202;52.520;10.528;2023-02-28T13:52:07;6.88;;;3.55;;
76380;SDS011;65202;52.520;10.528;2023-02-28T14:01:00;5.63;;;2.97;;
76380;SDS011;65202;52.520;10.528;2023-02-28T14:06:33;5.60;;;2.88;;
76380;SDS011;65202;52.520;10.528;2023-02-28T14:11:35;5.75;;;3.63;;
76380;SDS011;65202;52.520;10.528;2023-02-28T14:14:07;5.72;;;3.42;;
76380;SDS011;65202;52.520;10.528;2023-02-28T14:16:56;5.35;;;3.20;;
76380;SDS011;65202;52.520;10.528;2023-02-28T14:19:25;7.32;;;3.40;;
76380;SDS011;65202;52.520;10.528;2023-02-28T14:25:06;4.50;;;2.67;;
76380;SDS011;65202;52.520;10.528;2023-02-28T14:30:56;4.20;;;2.90;;
76380;SDS011;65202;52.520;10.528;2023-02-28T14:33:42;5.68;;;3.08;;
76380;SDS011;65202;52.520;10.528;2023-02-28T14:36:39;9.13;;;4.63;;
76380;SDS011;65202;52.520;10.528;2023-02-28T14:41:46;7.68;;;3.88;;
76380;SDS011;65202;52.520;10.528;2023-02-28T14:44:16;6.78;;;3.60;;
76380;SDS011;65202;52.520;10.528;2023-02-28T14:49:36;7.40;;;3.75;;
76380;SDS011;65202;52.520;10.528;2023-02-28T14:52:23;7.85;;;3.50;;
76380;SDS011;65202;52.520;10.528;2023-02-28T14:54:56;6.00;;;3.60;;
76380;SDS011;65202;52.520;10.528;2023-02-28T14:57:30;6.53;;;3.70;;
76380;SDS011;65202;52.520;10.528;2023-02-28T15:00:12;7.65;;;3.50;;
76380;SDS011;65202;52.520;10.528;2023-02-28T15:02:41;7.28;;;4.25;;
76380;SDS011;65202;52.520;10.528;2023-02-28T15:05:16;12.20;;;5.90;;
76380;SDS011;65202;52.520;10.528;2023-02-28T15:08:00;6.65;;;3.67;;
76380;SDS011;65202;52.520;10.528;2023-02-28T15:10:42;8.65;;;4.20;;
76380;SDS011;65202;52.520;10.528;2023-02-28T15:13:13;4.77;;;3.03;;
76380;SDS011;65202;52.520;10.528;2023-02-28T15:15:43;5.00;;;3.38;;
76380;SDS011;65202;52.520;10.528;2023-02-28T15:18:48;6.72;;;3.88;;
76380;SDS011;65202;52.520;10.528;2023-02-28T15:21:27;9.35;;;4.43;;
76380;SDS011;65202;52.520;10.528;2023-02-28T15:24:00;8.80;;;4.53;;
76380;SDS011;65202;52.520;10.528;2023-02-28T15:26:33;7.90;;;4.40;;
76380;SDS011;65202;52.520;10.528;2023-02-28T15:29:10;9.40;;;4.05;;
76380;SDS011;65202;52.520;10.528;2023-02-28T15:31:48;9.60;;;4.40;;
76380;SDS011;65202;52.520;10.528;2023-02-28T15:34:29;10.70;;;5.15;;
76380;SDS011;65202;52.520;10.528;2023-02-28T15:40:17;8.40;;;4.65;;
76380;SDS011;65202;52.520;10.528;2023-02-28T15:42:59;9.75;;;6.47;;
76380;SDS011;65202;52.520;10.528;2023-02-28T15:45:34;8.43;;;5.15;;
76380;SDS011;65202;52.520;10.528;2023-02-28T15:48:16;7.03;;;4.78;;
76380;SDS011;65202;52.520;10.528;2023-02-28T15:50:51;7.75;;;3.83;;
76380;SDS011;65202;52.520;10.528;2023-02-28T15:53:29;6.50;;;3.88;;
76380;SDS011;65202;52.520;10.528;2023-02-28T15:56:05;5.72;;;3.28;;
76380;SDS011;65202;52.520;10.528;2023-02-28T15:58:48;5.68;;;3.60;;
76380;SDS011;65202;52.520;10.528;2023-02-28T16:01:23;5.78;;;3.53;;
76380;SDS011;65202;52.520;10.528;2023-02-28T16:04:11;7.95;;;3.85;;
76380;SDS011;65202;52.520;10.528;2023-02-28T16:06:46;8.63;;;3.42;;
76380;SDS011;65202;52.520;10.528;2023-02-28T16:09:28;9.00;;;4.32;;
76380;SDS011;65202;52.520;10.528;2023-02-28T16:12:01;7.63;;;4.43;;
76380;SDS011;65202;52.520;10.528;2023-02-28T16:14:30;7.35;;;4.53;;
76380;SDS011;65202;52.520;10.528;2023-02-28T16:17:05;10.32;;;4.40;;
76380;SDS011;65202;52.520;10.528;2023-02-28T16:19:46;8.60;;;3.90;;
76380;SDS011;65202;52.520;10.528;2023-02-28T16:22:13;8.63;;;5.13;;
76380;SDS011;65202;52.520;10.528;2023-02-28T16:24:41;10.90;;;6.32;;
76380;SDS011;65202;52.520;10.528;2023-02-28T16:27:16;9.57;;;4.60;;
76380;SDS011;65202;52.520;10.528;2023-02-28T16:29:48;9.35;;;4.20;;
76380;SDS011;65202;52.520;10.528;2023-02-28T16:32:15;7.65;;;3.85;;
76380;SDS011;65202;52.520;10.528;2023-02-28T16:34:43;5.95;;;3.72;;
76380;SDS011;65202;52.520;10.528;2023-02-28T16:37:12;6.63;;;3.80;;
76380;SDS011;65202;52.520;10.528;2023-02-28T16:39:42;8.90;;;3.70;;
76380;SDS011;65202;52.520;10.528;2023-02-28T16:42:29;6.82;;;3.85;;
76380;SDS011;65202;52.520;10.528;2023-02-28T16:44:58;7.15;;;4.60;;
76380;SDS011;65202;52.520;10.528;2023-02-28T16:47:25;8.18;;;4.05;;
76380;SDS011;65202;52.520;10.528;2023-02-28T16:49:55;9.13;;;4.45;;
76380;SDS011;65202;52.520;10.528;2023-02-28T16:52:23;8.68;;;4.72;;
76380;SDS011;65202;52.520;10.528;2023-02-28T16:54:50;9.65;;;4.30;;
76380;SDS011;65202;52.520;10.528;2023-02-28T16:57:20;8.48;;;4.45;;
76380;SDS011;65202;52.520;10.528;2023-02-28T16:59:50;7.95;;;4.45;;
76380;SDS011;65202;52.520;10.528;2023-02-28T17:02:18;7.93;;;4.10;;
76380;SDS011;65202;52.520;10.528;2023-02-28T17:04:49;8.15;;;4.68;;
76380;SDS011;65202;52.520;10.528;2023-02-28T17:07:17;11.10;;;5.40;;